Terminal Aerodrome Forecast
Issued by NWS Blacksburg, VA

Home | Current Version | Previous Version | Text Only | Print | Product List | Glossary On
Versions: 1 2 3 4 5 6 7 8 9 10 11 12 13 14 15 16 17 18
000
FTUS41 KRNK 172325
TAFDAN
TAF
KDAN 172325Z 1800/1824 22008KT P6SM -RA OVC020
      TEMPO 1800/1802 OVC008
     FM180900 26004KT P6SM OVC035
     FM181400 30008KT P6SM SCT250
     FM181700 31012G20KT P6SM FEW250=

USA.gov is the U.S. government's official web portal to all federal, state and local government web resources and services.